createdAt,value
2022-10-08T00:02:23.697Z,11.68
2022-10-08T00:04:55.975Z,11.72
2022-10-08T00:07:28.202Z,11.75
2022-10-08T00:09:59.982Z,11.80
2022-10-08T00:12:31.765Z,11.83
2022-10-08T00:15:03.788Z,11.87
2022-10-08T00:17:36.545Z,11.91
2022-10-08T00:20:09.816Z,11.95
2022-10-08T00:22:41.608Z,11.98
2022-10-08T00:25:13.469Z,12.01
2022-10-08T00:27:45.336Z,12.05
2022-10-08T00:30:17.600Z,12.09
2022-10-08T00:32:49.810Z,12.13
2022-10-08T00:35:21.917Z,12.17
2022-10-08T00:37:53.677Z,12.20
2022-10-08T00:40:25.433Z,12.23
2022-10-08T00:42:57.139Z,12.26
2022-10-08T00:45:29.229Z,12.29
2022-10-08T00:48:01.179Z,12.31
2022-10-08T00:50:36.860Z,12.34
2022-10-08T00:53:10.588Z,12.37
2022-10-08T00:55:44.101Z,12.40
2022-10-08T00:58:20.254Z,12.43
2022-10-08T01:00:53.005Z,12.46
2022-10-08T01:03:25.248Z,12.50
2022-10-08T01:06:07.321Z,12.52
2022-10-08T01:08:48.506Z,12.54
2022-10-08T01:11:32.135Z,12.56
2022-10-08T01:14:11.288Z,12.58
2022-10-08T01:16:54.318Z,12.59
2022-10-08T01:19:50.828Z,12.60
2022-10-08T01:22:36.212Z,12.61
2022-10-08T01:25:34.317Z,12.62
2022-10-08T01:28:12.426Z,12.62
2022-10-08T01:30:51.426Z,12.64
2022-10-08T01:33:29.075Z,12.67
2022-10-08T01:36:05.252Z,12.69
2022-10-08T01:38:43.408Z,12.70
2022-10-08T01:41:19.335Z,12.71
2022-10-08T01:43:58.917Z,12.72
2022-10-08T01:46:32.896Z,12.73
2022-10-08T01:49:10.436Z,12.75
2022-10-08T01:51:48.267Z,12.76
2022-10-08T01:54:22.115Z,12.76
2022-10-08T01:56:56.141Z,12.77
2022-10-08T01:59:32.663Z,12.75
2022-10-08T02:02:11.879Z,12.76
2022-10-08T02:04:43.875Z,12.76
2022-10-08T02:07:19.241Z,12.77
2022-10-08T02:09:54.019Z,12.79
2022-10-08T02:12:26.009Z,12.80
2022-10-08T02:14:59.343Z,12.79
2022-10-08T02:17:40.690Z,12.80
2022-10-08T02:20:21.510Z,12.79
2022-10-08T02:22:59.340Z,12.79
2022-10-08T02:25:38.197Z,12.78
2022-10-08T02:28:16.176Z,12.77
2022-10-08T02:30:53.569Z,12.76
2022-10-08T02:33:30.175Z,12.73
2022-10-08T02:36:04.814Z,12.70
2022-10-08T02:38:40.753Z,12.68
2022-10-08T02:41:15.775Z,12.65
2022-10-08T02:43:50.780Z,12.63
2022-10-08T02:46:25.981Z,12.63
2022-10-08T02:49:02.253Z,12.63
2022-10-08T02:51:37.473Z,12.62
2022-10-08T02:54:11.092Z,12.63
2022-10-08T02:56:49.434Z,12.63
2022-10-08T02:59:22.929Z,12.64
2022-10-08T03:02:00.464Z,12.63
2022-10-08T03:04:37.350Z,12.62
2022-10-08T03:07:10.377Z,12.61
2022-10-08T03:09:45.407Z,12.60
2022-10-08T03:12:17.136Z,12.58
2022-10-08T03:14:52.413Z,12.57
2022-10-08T03:17:30.651Z,12.56
2022-10-08T03:20:06.053Z,12.53
2022-10-08T03:22:38.414Z,12.50
2022-10-08T03:25:10.879Z,12.47
2022-10-08T03:27:42.705Z,12.43
2022-10-08T03:30:15.962Z,12.40
2022-10-08T03:32:48.022Z,12.38
2022-10-08T03:35:20.007Z,12.35
2022-10-08T03:37:52.784Z,12.32
2022-10-08T03:40:24.516Z,12.27
2022-10-08T03:42:56.319Z,12.23
2022-10-08T03:45:28.241Z,12.20
2022-10-08T03:48:00.004Z,12.16
2022-10-08T03:50:31.777Z,12.13
2022-10-08T03:53:03.511Z,12.08
2022-10-08T03:55:37.854Z,12.04
2022-10-08T03:58:09.614Z,12.01
2022-10-08T04:00:41.791Z,11.98
2022-10-08T04:03:13.754Z,11.94
2022-10-08T04:05:52.538Z,11.88
2022-10-08T04:08:24.714Z,11.83
2022-10-08T04:10:56.502Z,11.78
2022-10-08T04:13:28.284Z,11.74
2022-10-08T04:16:04.540Z,11.71
2022-10-08T04:18:36.622Z,11.65
2022-10-08T04:21:10.168Z,11.61
2022-10-08T04:23:43.785Z,11.57
2022-10-08T04:26:16.654Z,11.54
2022-10-08T04:28:49.173Z,11.49
2022-10-08T04:31:23.465Z,11.45
2022-10-08T04:33:55.664Z,11.40
2022-10-08T04:36:27.646Z,11.36
2022-10-08T04:38:59.559Z,11.33
2022-10-08T04:41:31.389Z,11.28
2022-10-08T04:44:03.447Z,11.27
2022-10-08T04:46:35.338Z,11.26
2022-10-08T04:49:07.202Z,11.26
2022-10-08T04:51:39.103Z,11.27
2022-10-08T04:54:11.192Z,11.27
2022-10-08T04:56:43.077Z,11.27
2022-10-08T04:59:15.022Z,11.26
2022-10-08T05:01:46.794Z,11.26
2022-10-08T05:04:18.623Z,11.28
2022-10-08T05:06:50.760Z,11.29
2022-10-08T05:09:22.906Z,11.32
2022-10-08T05:11:54.669Z,11.33
2022-10-08T05:14:26.758Z,11.35
2022-10-08T05:16:58.516Z,11.37
2022-10-08T05:19:30.556Z,11.39
2022-10-08T05:22:02.303Z,11.42
2022-10-08T05:24:34.085Z,11.45
2022-10-08T05:27:05.892Z,11.48
2022-10-08T05:29:37.905Z,11.51
2022-10-08T05:32:09.669Z,11.53
2022-10-08T05:34:41.523Z,11.54
2022-10-08T05:37:13.330Z,11.54
2022-10-08T05:39:45.733Z,11.55
2022-10-08T05:42:17.530Z,11.55
2022-10-08T05:44:49.242Z,11.56
2022-10-08T05:47:20.985Z,11.56
2022-10-08T05:49:52.853Z,11.58
2022-10-08T05:52:28.185Z,11.60
2022-10-08T05:55:00.489Z,11.63
2022-10-08T05:57:32.568Z,11.65
2022-10-08T06:00:05.440Z,11.69
2022-10-08T06:02:43.266Z,11.73
2022-10-08T06:05:15.501Z,11.77
2022-10-08T06:07:47.902Z,11.81
2022-10-08T06:10:19.771Z,11.83
2022-10-08T06:12:53.999Z,11.86
2022-10-08T06:15:25.804Z,11.91
2022-10-08T06:17:58.579Z,11.96
2022-10-08T06:20:32.065Z,12.00
2022-10-08T06:23:04.205Z,12.04
2022-10-08T06:25:38.455Z,12.08
2022-10-08T06:28:10.454Z,12.13
2022-10-08T06:30:44.059Z,12.17
2022-10-08T06:33:17.002Z,12.24
2022-10-08T06:35:48.872Z,12.29
2022-10-08T06:38:20.770Z,12.34
2022-10-08T06:40:52.543Z,12.36
2022-10-08T06:43:24.299Z,12.35
2022-10-08T06:45:56.754Z,12.38
2022-10-08T06:48:29.006Z,12.42
2022-10-08T06:51:02.275Z,12.47
2022-10-08T06:53:34.493Z,12.53
2022-10-08T06:56:08.573Z,12.59
2022-10-08T06:58:40.721Z,12.65
2022-10-08T07:01:14.577Z,12.72
2022-10-08T07:03:49.700Z,12.80
2022-10-08T07:06:21.679Z,12.88
2022-10-08T07:08:55.980Z,12.93
2022-10-08T07:11:30.274Z,13.01
2022-10-08T07:14:02.337Z,13.08
2022-10-08T07:16:35.114Z,13.16
2022-10-08T07:19:07.047Z,13.26
2022-10-08T07:21:39.044Z,13.36
2022-10-08T07:24:11.214Z,13.44
2022-10-08T07:26:43.065Z,13.53
2022-10-08T07:29:17.098Z,13.60
2022-10-08T07:31:49.110Z,13.72
2022-10-08T07:34:21.297Z,13.85
2022-10-08T07:36:52.999Z,13.97
2022-10-08T07:39:25.033Z,14.10
2022-10-08T07:41:57.414Z,14.20
2022-10-08T07:44:29.316Z,14.30
2022-10-08T07:47:01.126Z,14.37
2022-10-08T07:49:33.427Z,14.44
2022-10-08T07:52:05.657Z,14.51
2022-10-08T07:54:37.626Z,14.58
2022-10-08T07:57:09.575Z,14.68
2022-10-08T07:59:41.511Z,14.77
2022-10-08T08:02:14.398Z,14.89
2022-10-08T08:04:46.475Z,15.00
2022-10-08T08:07:18.334Z,15.10
2022-10-08T08:09:50.173Z,15.18
2022-10-08T08:12:22.058Z,15.27
2022-10-08T08:14:53.944Z,15.33
2022-10-08T08:17:25.985Z,15.40
2022-10-08T08:19:57.970Z,15.47
2022-10-08T08:22:29.704Z,15.51
2022-10-08T08:25:01.467Z,15.58
2022-10-08T08:27:34.255Z,15.63
2022-10-08T08:30:07.373Z,15.69
2022-10-08T08:32:39.372Z,15.74
2022-10-08T08:35:11.561Z,15.77
2022-10-08T08:37:43.399Z,15.81
2022-10-08T08:40:15.335Z,15.87
2022-10-08T08:42:54.837Z,15.91
2022-10-08T08:45:47.423Z,15.94
2022-10-08T08:48:23.299Z,15.90
2022-10-08T08:51:04.505Z,15.91
2022-10-08T08:53:36.373Z,15.94
2022-10-08T08:56:14.155Z,15.97
2022-10-08T08:58:52.699Z,16.00
2022-10-08T09:01:30.781Z,16.06
2022-10-08T09:04:08.452Z,16.15
2022-10-08T09:06:41.345Z,16.25
2022-10-08T09:09:24.472Z,16.34
2022-10-08T09:11:56.721Z,16.42
2022-10-08T09:14:37.367Z,16.51
2022-10-08T09:17:19.135Z,16.59
2022-10-08T09:19:52.834Z,16.64
2022-10-08T09:22:27.188Z,16.70
2022-10-08T09:25:02.448Z,16.77
2022-10-08T09:27:49.777Z,16.85
2022-10-08T09:30:36.791Z,16.91
2022-10-08T09:33:24.133Z,16.97
2022-10-08T09:35:56.676Z,17.01
2022-10-08T09:38:31.289Z,17.07
2022-10-08T09:41:06.488Z,17.12
2022-10-08T09:43:38.599Z,17.15
2022-10-08T09:46:29.258Z,17.17
2022-10-08T09:49:27.431Z,17.19
2022-10-08T09:52:02.051Z,17.23
2022-10-08T09:54:42.616Z,17.29
2022-10-08T09:57:18.905Z,17.36
2022-10-08T09:59:54.828Z,17.44
2022-10-08T10:02:37.909Z,17.50
2022-10-08T10:05:23.782Z,17.53
2022-10-08T10:07:56.255Z,17.56
2022-10-08T10:10:33.035Z,17.61
2022-10-08T10:13:14.095Z,17.66
2022-10-08T10:15:49.990Z,17.70
2022-10-08T10:18:26.827Z,17.76
2022-10-08T10:21:15.729Z,17.86
2022-10-08T10:23:56.186Z,17.89
2022-10-08T10:26:32.250Z,17.92
2022-10-08T10:29:10.545Z,17.94
2022-10-08T10:31:48.148Z,17.95
2022-10-08T10:34:25.442Z,17.99
2022-10-08T10:37:00.374Z,18.05
2022-10-08T10:39:40.192Z,18.11
2022-10-08T10:42:20.042Z,18.17
2022-10-08T10:44:58.501Z,18.18
2022-10-08T10:47:33.375Z,18.19
2022-10-08T10:50:07.489Z,18.21
2022-10-08T10:52:54.415Z,18.21
2022-10-08T10:55:32.543Z,18.15
2022-10-08T10:58:36.497Z,18.12
2022-10-08T11:01:20.877Z,18.11
2022-10-08T11:04:05.059Z,18.09
2022-10-08T11:07:00.466Z,18.07
2022-10-08T11:09:42.312Z,18.05
2022-10-08T11:12:39.515Z,18.08
2022-10-08T11:15:25.315Z,18.12
2022-10-08T11:18:15.637Z,18.13
2022-10-08T11:21:06.607Z,18.11
2022-10-08T11:23:59.456Z,18.09
2022-10-08T11:26:39.351Z,18.11
2022-10-08T11:29:18.738Z,18.16
2022-10-08T11:31:52.777Z,18.22
2022-10-08T11:34:29.549Z,18.25
2022-10-08T11:37:13.942Z,18.28
2022-10-08T11:39:54.927Z,18.27
2022-10-08T11:42:40.683Z,18.27
2022-10-08T11:45:30.399Z,18.29
2022-10-08T11:48:07.689Z,18.30
2022-10-08T11:50:41.692Z,18.29
2022-10-08T11:53:22.679Z,18.26
2022-10-08T11:56:00.098Z,18.26
2022-10-08T11:58:35.436Z,18.25
2022-10-08T12:01:09.291Z,18.26
2022-10-08T12:03:43.622Z,18.31
2022-10-08T12:06:24.562Z,18.32
2022-10-08T12:08:59.124Z,18.31
2022-10-08T12:11:54.952Z,18.32
2022-10-08T12:15:05.638Z,18.31
2022-10-08T12:17:59.120Z,18.26
2022-10-08T12:20:33.517Z,18.26
2022-10-08T12:23:18.812Z,18.26
2022-10-08T12:26:14.219Z,18.26
2022-10-08T12:28:59.993Z,18.17
2022-10-08T12:31:40.151Z,18.14
2022-10-08T12:34:20.277Z,18.10
2022-10-08T12:37:04.212Z,18.05
2022-10-08T12:39:45.803Z,18.04
2022-10-08T12:42:25.877Z,18.02
2022-10-08T12:45:14.276Z,18.02
2022-10-08T12:47:57.608Z,18.02
2022-10-08T12:50:47.612Z,18.06
2022-10-08T12:53:20.531Z,18.07
2022-10-08T12:55:56.723Z,18.10
2022-10-08T12:58:32.143Z,18.07
2022-10-08T13:01:06.502Z,17.98
2022-10-08T13:03:38.401Z,17.92
2022-10-08T13:06:33.040Z,17.88
2022-10-08T13:09:21.258Z,17.84
2022-10-08T13:11:57.212Z,17.85
2022-10-08T13:14:33.822Z,17.86
2022-10-08T13:17:06.830Z,17.88
2022-10-08T13:19:41.025Z,17.83
2022-10-08T13:22:26.775Z,17.80
2022-10-08T13:24:58.631Z,17.79
2022-10-08T13:27:32.552Z,17.79
2022-10-08T13:30:28.538Z,17.76
2022-10-08T13:33:07.371Z,17.70
2022-10-08T13:35:41.395Z,17.69
2022-10-08T13:38:24.563Z,17.69
2022-10-08T13:41:00.095Z,17.66
2022-10-08T13:43:32.936Z,17.62
2022-10-08T13:46:04.741Z,17.61
2022-10-08T13:48:36.948Z,17.61
2022-10-08T13:51:11.068Z,17.59
2022-10-08T13:53:45.778Z,17.55
2022-10-08T13:56:20.460Z,17.56
2022-10-08T13:58:52.211Z,17.55
2022-10-08T14:01:24.094Z,17.48
2022-10-08T14:03:56.263Z,17.44
2022-10-08T14:06:28.659Z,17.40
2022-10-08T14:09:01.888Z,17.36
2022-10-08T14:11:34.415Z,17.32
2022-10-08T14:14:06.190Z,17.27
2022-10-08T14:16:38.133Z,17.24
2022-10-08T14:19:12.777Z,17.17
2022-10-08T14:21:45.679Z,17.16
2022-10-08T14:24:18.337Z,17.10
2022-10-08T14:26:50.281Z,17.03
2022-10-08T14:29:22.451Z,17.02
2022-10-08T14:31:54.385Z,16.99
2022-10-08T14:34:26.282Z,16.93
2022-10-08T14:36:58.170Z,16.88
2022-10-08T14:39:30.508Z,16.83
2022-10-08T14:42:02.424Z,16.84
2022-10-08T14:44:34.460Z,16.81
2022-10-08T14:47:06.389Z,16.77
2022-10-08T14:49:39.068Z,16.76
2022-10-08T14:52:11.086Z,16.72
2022-10-08T14:54:43.244Z,16.67
2022-10-08T14:57:15.774Z,16.60
2022-10-08T14:59:47.792Z,16.58
2022-10-08T15:02:19.778Z,16.56
2022-10-08T15:04:51.850Z,16.54
2022-10-08T15:07:23.826Z,16.51
2022-10-08T15:09:55.667Z,16.49
2022-10-08T15:12:27.545Z,16.45
2022-10-08T15:14:59.399Z,16.43
2022-10-08T15:17:31.705Z,16.40
2022-10-08T15:20:03.702Z,16.33
2022-10-08T15:22:35.653Z,16.32
2022-10-08T15:25:08.743Z,16.29
2022-10-08T15:27:40.654Z,16.26
2022-10-08T15:30:15.039Z,16.21
2022-10-08T15:32:47.191Z,16.20
2022-10-08T15:35:19.929Z,16.20
2022-10-08T15:37:52.481Z,16.13
2022-10-08T15:40:25.558Z,16.11
2022-10-08T15:42:57.706Z,16.10
2022-10-08T15:45:32.346Z,16.09
2022-10-08T15:48:11.444Z,16.05
2022-10-08T15:50:43.271Z,15.99
2022-10-08T15:53:15.237Z,15.95
2022-10-08T15:55:57.006Z,15.92
2022-10-08T15:58:49.321Z,15.88
2022-10-08T16:01:25.410Z,15.80
2022-10-08T16:04:00.155Z,15.74
2022-10-08T16:06:37.970Z,15.70
2022-10-08T16:09:13.213Z,15.66
2022-10-08T16:11:45.978Z,15.61
2022-10-08T16:14:21.265Z,15.58
2022-10-08T16:16:54.585Z,15.53
2022-10-08T16:19:28.176Z,15.48
2022-10-08T16:22:01.436Z,15.43
2022-10-08T16:24:33.547Z,15.38
2022-10-08T16:27:05.332Z,15.32
2022-10-08T16:29:37.259Z,15.28
2022-10-08T16:32:11.190Z,15.23
2022-10-08T16:34:45.292Z,15.18
2022-10-08T16:37:18.869Z,15.13
2022-10-08T16:39:50.798Z,15.09
2022-10-08T16:42:26.188Z,15.05
2022-10-08T16:44:58.681Z,14.98
2022-10-08T16:47:30.753Z,14.92
2022-10-08T16:50:09.815Z,14.88
2022-10-08T16:52:48.152Z,14.84
2022-10-08T16:55:21.306Z,14.80
2022-10-08T16:57:55.591Z,14.78
2022-10-08T17:00:28.434Z,14.75
2022-10-08T17:03:03.848Z,14.73
2022-10-08T17:05:42.869Z,14.70
2022-10-08T17:08:15.339Z,14.67
2022-10-08T17:10:47.521Z,14.66
2022-10-08T17:13:20.922Z,14.65
2022-10-08T17:16:02.011Z,14.64
2022-10-08T17:18:41.003Z,14.60
2022-10-08T17:21:16.160Z,14.57
2022-10-08T17:23:50.876Z,14.57
2022-10-08T17:26:24.630Z,14.54
2022-10-08T17:28:58.353Z,14.52
2022-10-08T17:31:35.806Z,14.49
2022-10-08T17:34:11.905Z,14.44
2022-10-08T17:36:50.214Z,14.39
2022-10-08T17:39:28.698Z,14.31
2022-10-08T17:42:04.799Z,14.24
2022-10-08T17:44:41.969Z,14.19
2022-10-08T17:47:14.045Z,14.17
2022-10-08T17:49:50.083Z,14.16
2022-10-08T17:52:23.010Z,14.15
2022-10-08T17:54:56.886Z,14.18
2022-10-08T17:57:32.616Z,14.20
2022-10-08T18:00:04.710Z,14.20
2022-10-08T18:02:40.809Z,14.23
2022-10-08T18:05:12.807Z,14.25
2022-10-08T18:07:44.675Z,14.25
2022-10-08T18:10:16.607Z,14.25
2022-10-08T18:13:14.684Z,14.21
2022-10-08T18:15:51.315Z,14.15
2022-10-08T18:18:23.304Z,14.13
2022-10-08T18:21:00.017Z,14.10
2022-10-08T18:23:33.378Z,14.11
2022-10-08T18:26:16.849Z,14.07
2022-10-08T18:28:50.825Z,14.04
2022-10-08T18:31:30.400Z,13.99
2022-10-08T18:34:04.834Z,13.93
2022-10-08T18:37:09.503Z,13.93
2022-10-08T18:40:13.679Z,13.87
2022-10-08T18:42:59.345Z,13.75
2022-10-08T18:45:34.001Z,13.70
2022-10-08T18:48:08.582Z,13.71
2022-10-08T18:50:44.650Z,13.70
2022-10-08T18:56:35.587Z,13.63
2022-10-08T18:59:09.305Z,13.61
2022-10-08T19:01:44.294Z,13.60
2022-10-08T19:04:18.479Z,13.62
2022-10-08T19:06:53.461Z,13.68
2022-10-08T19:09:25.742Z,13.67
2022-10-08T19:11:57.938Z,13.66
2022-10-08T19:14:32.608Z,13.65
2022-10-08T19:17:05.163Z,13.63
2022-10-08T19:19:38.717Z,13.59
2022-10-08T19:22:10.662Z,13.57
2022-10-08T19:24:42.957Z,13.57
2022-10-08T19:27:14.736Z,13.58
2022-10-08T19:29:46.472Z,13.57
2022-10-08T19:32:18.372Z,13.52
2022-10-08T19:34:50.207Z,13.46
2022-10-08T19:37:22.034Z,13.44
2022-10-08T19:39:53.808Z,13.42
2022-10-08T19:42:25.653Z,13.38
2022-10-08T19:44:57.549Z,13.35
2022-10-08T19:47:29.443Z,13.32
2022-10-08T19:50:01.306Z,13.29
2022-10-08T19:52:36.102Z,13.26
2022-10-08T19:55:10.006Z,13.23
2022-10-08T19:57:41.770Z,13.20
2022-10-08T20:00:16.277Z,13.18
2022-10-08T20:02:48.484Z,13.16
2022-10-08T20:05:20.587Z,13.14
2022-10-08T20:07:52.300Z,13.09
2022-10-08T20:10:24.055Z,13.07
2022-10-08T20:12:56.841Z,13.03
2022-10-08T20:15:29.005Z,13.00
2022-10-08T20:18:03.668Z,12.96
2022-10-08T20:20:36.959Z,12.92
2022-10-08T20:23:08.757Z,12.88
2022-10-08T20:25:46.724Z,12.84
2022-10-08T20:28:18.907Z,12.79
2022-10-08T20:30:51.041Z,12.75
2022-10-08T20:33:41.518Z,12.67
2022-10-08T20:36:15.026Z,12.59
2022-10-08T20:38:46.983Z,12.54
2022-10-08T20:41:18.869Z,12.52
2022-10-08T20:43:52.376Z,12.48
2022-10-08T20:46:26.761Z,12.42
2022-10-08T20:48:58.953Z,12.40
2022-10-08T20:51:31.741Z,12.38
2022-10-08T20:54:06.044Z,12.36
2022-10-08T20:56:40.433Z,12.29
2022-10-08T20:59:17.043Z,12.23
2022-10-08T21:01:50.260Z,12.19
2022-10-08T21:04:22.869Z,12.13
2022-10-08T21:06:57.354Z,12.08
2022-10-08T21:09:29.415Z,12.07
2022-10-08T21:12:01.163Z,12.07
2022-10-08T21:14:33.464Z,12.03
2022-10-08T21:17:05.223Z,12.03
2022-10-08T21:19:37.355Z,12.02
2022-10-08T21:22:09.192Z,11.99
2022-10-08T21:24:40.993Z,11.94
2022-10-08T21:27:12.876Z,11.89
2022-10-08T21:29:44.747Z,11.86
2022-10-08T21:32:16.949Z,11.82
2022-10-08T21:34:49.075Z,11.78
2022-10-08T21:37:21.949Z,11.75
2022-10-08T21:39:53.699Z,11.72
2022-10-08T21:42:25.476Z,11.68
2022-10-08T21:44:57.397Z,11.64
2022-10-08T21:47:29.179Z,11.61
2022-10-08T21:50:01.006Z,11.60
2022-10-08T21:52:32.958Z,11.62
2022-10-08T21:55:04.995Z,11.61
2022-10-08T21:57:36.766Z,11.58
2022-10-08T22:00:12.347Z,11.51
2022-10-08T22:02:47.085Z,11.47
2022-10-08T22:05:19.142Z,11.46
2022-10-08T22:07:51.161Z,11.41
2022-10-08T22:10:22.887Z,11.41
2022-10-08T22:12:55.787Z,11.38
2022-10-08T22:15:27.609Z,11.34
2022-10-08T22:17:59.447Z,11.34
2022-10-08T22:20:31.257Z,11.37
2022-10-08T22:23:03.018Z,11.38
2022-10-08T22:25:34.846Z,11.40
2022-10-08T22:28:06.968Z,11.39
2022-10-08T22:30:39.274Z,11.36
2022-10-08T22:33:11.054Z,11.33
2022-10-08T22:35:43.594Z,11.31
2022-10-08T22:38:16.221Z,11.30
2022-10-08T22:40:51.125Z,11.31
2022-10-08T22:43:22.894Z,11.31
2022-10-08T22:45:55.044Z,11.30
2022-10-08T22:48:26.937Z,11.25
2022-10-08T22:51:03.430Z,11.19
2022-10-08T22:53:36.094Z,11.14
2022-10-08T22:56:10.961Z,11.11
2022-10-08T22:58:43.208Z,11.06
2022-10-08T23:01:17.340Z,11.03
2022-10-08T23:03:50.276Z,10.98
2022-10-08T23:06:24.069Z,10.98
2022-10-08T23:08:59.185Z,10.97
2022-10-08T23:11:32.117Z,10.95
2022-10-08T23:14:04.867Z,10.92
2022-10-08T23:16:37.340Z,10.85
2022-10-08T23:19:12.024Z,10.80
2022-10-08T23:21:44.546Z,10.78
2022-10-08T23:24:16.423Z,10.75
2022-10-08T23:26:48.257Z,10.75
2022-10-08T23:29:20.052Z,10.70
2022-10-08T23:31:51.860Z,10.70
2022-10-08T23:34:23.689Z,10.70
2022-10-08T23:36:55.488Z,10.69
2022-10-08T23:39:27.572Z,10.70
2022-10-08T23:41:59.438Z,10.68
2022-10-08T23:44:31.203Z,10.65
2022-10-08T23:47:03.081Z,10.60
2022-10-08T23:49:34.908Z,10.58
2022-10-08T23:52:06.636Z,10.52
2022-10-08T23:54:38.437Z,10.48
2022-10-08T23:57:10.713Z,10.45
2022-10-08T23:59:42.435Z,10.41
